Time;durP1;ratioP1;P1;durP2;ratioP2;P2;SDS_P1;SDS_P2;PMS_P1;PMS_P2;Temp;Humidity;BMP_temperature;BMP_pressure;BME280_temperature;BME280_humidity;BME280_pressure;Samples;Min_cycle;Max_cycle;Signal;HPM_P1;HPM_P2
2022/09/21 00:00:46;;;;;;;2.38;1.10;;;;;16.90;102492.00;;;;5005859;28;20722;-79
2022/09/21 00:03:15;;;;;;;2.60;1.05;;;;;16.90;102492.00;;;;5006340;28;20201;-79
2022/09/21 00:05:42;;;;;;;3.05;0.60;;;;;16.90;102489.00;;;;5005928;28;20666;-79
2022/09/21 00:08:13;;;;;;;1.15;0.77;;;;;16.80;102488.00;;;;5007112;28;20204;-79
2022/09/21 00:10:40;;;;;;;1.63;0.90;;;;;16.80;102495.00;;;;5005050;28;20236;-79
2022/09/21 00:13:08;;;;;;;2.20;0.85;;;;;16.80;102489.00;;;;5004734;28;20205;-79
2022/09/21 00:15:36;;;;;;;1.95;1.02;;;;;16.80;102492.00;;;;5005422;28;20255;-79
2022/09/21 00:18:04;;;;;;;1.48;0.88;;;;;16.70;102486.00;;;;5007279;28;20213;-79
2022/09/21 00:20:31;;;;;;;1.80;0.80;;;;;16.70;102488.00;;;;5006107;28;20201;-79
2022/09/21 00:22:59;;;;;;;3.83;0.80;;;;;16.70;102491.00;;;;5006023;28;20201;-79
2022/09/21 00:25:26;;;;;;;1.90;1.00;;;;;16.70;102488.00;;;;5006000;28;20201;-79
2022/09/21 00:27:54;;;;;;;5.03;1.00;;;;;16.60;102489.00;;;;5006621;28;20205;-78
2022/09/21 00:30:22;;;;;;;1.23;0.70;;;;;16.60;102482.00;;;;5005850;28;20303;-79
2022/09/21 00:32:49;;;;;;;3.15;0.98;;;;;16.60;102491.00;;;;5007067;28;20229;-78
2022/09/21 00:35:18;;;;;;;1.55;0.73;;;;;16.60;102495.00;;;;5007343;28;20204;-79
2022/09/21 00:37:45;;;;;;;1.85;0.73;;;;;16.60;102484.00;;;;5007463;28;21021;-79
2022/09/21 00:40:13;;;;;;;1.35;0.82;;;;;16.50;102484.00;;;;5006671;28;20197;-79
2022/09/21 00:42:40;;;;;;;1.25;0.85;;;;;16.50;102487.00;;;;5006013;28;20200;-79
2022/09/21 00:45:19;;;;;;;1.42;0.85;;;;;16.40;102478.00;;;;5005279;28;20204;-79
2022/09/21 00:47:50;;;;;;;2.22;1.08;;;;;16.40;102487.00;;;;5006724;28;20224;-79
2022/09/21 00:50:23;;;;;;;1.50;0.80;;;;;16.30;102481.00;;;;5007241;28;20201;-79
2022/09/21 00:52:55;;;;;;;3.28;1.05;;;;;16.30;102488.00;;;;5007127;28;20200;-79
2022/09/21 00:55:26;;;;;;;2.47;0.63;;;;;16.30;102484.00;;;;5005889;28;20534;-79
2022/09/21 00:57:58;;;;;;;2.58;0.90;;;;;16.30;102486.00;;;;5006185;28;20229;-79
2022/09/21 01:00:25;;;;;;;2.95;0.93;;;;;16.30;102487.00;;;;5008809;28;20292;-79
2022/09/21 01:02:56;;;;;;;2.65;0.98;;;;;16.20;102489.00;;;;4999825;28;20206;-79
2022/09/21 01:05:25;;;;;;;1.80;0.60;;;;;16.20;102492.00;;;;5007331;28;20207;-79
2022/09/21 01:07:53;;;;;;;1.65;0.57;;;;;16.20;102486.00;;;;5007069;28;20573;-79
2022/09/21 01:10:20;;;;;;;0.70;0.45;;;;;16.10;102486.00;;;;5008528;28;20200;-79
2022/09/21 01:13:03;;;;;;;0.95;0.57;;;;;16.00;102483.00;;;;5007046;28;20714;-79
2022/09/21 01:15:39;;;;;;;1.67;0.60;;;;;16.00;102485.00;;;;5002846;28;20205;-79
2022/09/21 01:18:16;;;;;;;2.13;0.60;;;;;16.00;102484.00;;;;5007427;28;20197;-79
2022/09/21 01:21:12;;;;;;;1.27;0.40;;;;;15.90;102486.00;;;;5006452;28;20741;-79
2022/09/21 01:24:04;;;;;;;3.40;0.70;;;;;15.90;102485.00;;;;4998988;28;20200;-79
2022/09/21 01:26:45;;;;;;;1.42;0.38;;;;;15.80;102481.00;;;;5000655;28;20586;-79
2022/09/21 01:29:23;;;;;;;0.90;0.60;;;;;15.80;102481.00;;;;5005662;28;20201;-79
2022/09/21 01:31:56;;;;;;;0.98;0.57;;;;;15.80;102488.00;;;;4999501;28;20577;-79
2022/09/21 01:34:30;;;;;;;1.45;0.70;;;;;15.70;102484.00;;;;5005974;28;20197;-79
2022/09/21 01:37:03;;;;;;;1.00;0.80;;;;;15.70;102484.00;;;;4995209;28;20348;-79
2022/09/21 01:39:33;;;;;;;2.58;0.73;;;;;15.70;102481.00;;;;5008034;28;20211;-79
2022/09/21 01:42:04;;;;;;;1.85;0.70;;;;;15.60;102477.00;;;;5008351;28;20213;-79
2022/09/21 01:44:35;;;;;;;1.10;0.70;;;;;15.60;102480.00;;;;5009165;28;20205;-79
2022/09/21 01:47:05;;;;;;;0.82;0.50;;;;;15.60;102475.00;;;;5010705;28;20205;-79
2022/09/21 01:49:39;;;;;;;1.00;0.63;;;;;15.50;102481.00;;;;5009014;28;20189;-79
2022/09/21 01:52:14;;;;;;;1.05;0.40;;;;;15.50;102477.00;;;;5003946;28;20205;-79
2022/09/21 01:54:46;;;;;;;1.85;0.60;;;;;15.50;102492.00;;;;5009989;28;20216;-79
2022/09/21 01:57:19;;;;;;;1.73;0.60;;;;;15.50;102487.00;;;;5009048;28;20263;-79
2022/09/21 01:59:52;;;;;;;1.73;0.50;;;;;15.40;102490.00;;;;5007660;28;20192;-79
2022/09/21 02:02:31;;;;;;;1.33;0.82;;;;;15.40;102477.00;;;;5007763;28;20221;-79
2022/09/21 02:05:00;;;;;;;2.15;0.60;;;;;15.40;102478.00;;;;5008284;28;20196;-79
2022/09/21 02:07:27;;;;;;;2.10;0.93;;;;;15.40;102487.00;;;;5008619;28;20193;-79
2022/09/21 02:09:55;;;;;;;1.25;0.77;;;;;15.40;102488.00;;;;5009449;28;20193;-79
2022/09/21 02:12:23;;;;;;;1.10;0.65;;;;;15.30;102485.00;;;;5007343;28;20240;-79
2022/09/21 02:14:54;;;;;;;1.23;0.95;;;;;15.30;102489.00;;;;5010500;28;20201;-79
2022/09/21 02:17:31;;;;;;;6.60;1.58;;;;;15.20;102488.00;;;;5009005;28;20324;-79
2022/09/21 02:20:08;;;;;;;1.13;0.73;;;;;15.20;102488.00;;;;5008671;28;20239;-78
2022/09/21 02:22:40;;;;;;;0.65;0.63;;;;;15.20;102487.00;;;;5007562;28;20200;-79
2022/09/21 02:25:12;;;;;;;1.95;0.70;;;;;15.20;102481.00;;;;5007587;28;20600;-78
2022/09/21 02:27:48;;;;;;;0.70;0.50;;;;;15.10;102480.00;;;;5008359;28;20223;-79
2022/09/21 02:30:19;;;;;;;1.33;0.70;;;;;15.10;102486.00;;;;5007373;28;20685;-79
2022/09/21 02:32:50;;;;;;;1.60;0.50;;;;;15.10;102481.00;;;;5009330;28;20208;-79
2022/09/21 02:35:31;;;;;;;0.70;0.50;;;;;15.00;102487.00;;;;5007057;28;20204;-79
2022/09/21 02:38:06;;;;;;;1.20;0.60;;;;;15.00;102479.00;;;;4997894;28;20228;-79
2022/09/21 02:40:40;;;;;;;2.88;0.80;;;;;15.00;102482.00;;;;5007545;28;20201;-79
2022/09/21 02:43:12;;;;;;;2.13;0.75;;;;;15.00;102479.00;;;;5007660;28;20201;-79
2022/09/21 02:45:47;;;;;;;2.83;0.60;;;;;14.90;102483.00;;;;5007534;28;20734;-79
2022/09/21 02:48:18;;;;;;;2.92;0.52;;;;;14.90;102483.00;;;;5008674;28;20200;-78
2022/09/21 02:50:50;;;;;;;2.20;0.80;;;;;14.90;102484.00;;;;5005825;28;20670;-79
2022/09/21 02:53:23;;;;;;;1.30;0.63;;;;;14.90;102481.00;;;;5010078;28;20198;-79
2022/09/21 02:55:52;;;;;;;2.00;0.75;;;;;14.90;102476.00;;;;5008113;28;20205;-79
2022/09/21 02:58:21;;;;;;;3.53;0.80;;;;;14.90;102473.00;;;;5009237;28;20695;-79
2022/09/21 03:00:50;;;;;;;2.95;0.60;;;;;14.80;102468.00;;;;5007032;28;20219;-79
2022/09/21 03:03:19;;;;;;;1.17;0.60;;;;;14.80;102469.00;;;;5003880;28;20205;-79
2022/09/21 03:05:49;;;;;;;4.60;0.80;;;;;14.80;102468.00;;;;5009381;28;20204;-78
2022/09/21 03:08:16;;;;;;;2.10;0.70;;;;;14.80;102468.00;;;;5008128;28;20551;-79
2022/09/21 03:10:45;;;;;;;5.53;0.90;;;;;14.80;102464.00;;;;5008959;28;20212;-79
2022/09/21 03:13:13;;;;;;;1.75;0.85;;;;;14.70;102472.00;;;;5007456;28;20205;-79
2022/09/21 03:15:41;;;;;;;2.10;0.80;;;;;14.70;102469.00;;;;5008969;28;20973;-79
2022/09/21 03:18:11;;;;;;;1.30;0.65;;;;;14.70;102477.00;;;;5006461;28;20298;-79
2022/09/21 03:20:39;;;;;;;1.90;0.80;;;;;14.70;102468.00;;;;5003422;28;20735;-79
2022/09/21 03:23:07;;;;;;;1.60;0.80;;;;;14.70;102476.00;;;;5007402;28;20197;-78
2022/09/21 03:25:35;;;;;;;1.48;0.75;;;;;14.60;102476.00;;;;5008911;28;20659;-79
2022/09/21 03:28:02;;;;;;;1.77;0.95;;;;;14.60;102484.00;;;;5008269;28;20215;-79
2022/09/21 03:30:30;;;;;;;3.33;0.95;;;;;14.60;102477.00;;;;5007476;28;20197;-80
2022/09/21 03:32:58;;;;;;;2.90;1.02;;;;;14.60;102488.00;;;;5009100;28;20550;-79
2022/09/21 03:35:27;;;;;;;1.65;0.80;;;;;14.50;102487.00;;;;5004648;28;20574;-80
2022/09/21 03:37:54;;;;;;;1.10;0.55;;;;;14.60;102480.00;;;;5008748;28;20228;-80
2022/09/21 03:40:22;;;;;;;2.67;0.60;;;;;14.50;102489.00;;;;5005815;28;20270;-80
2022/09/21 03:42:50;;;;;;;2.45;0.60;;;;;14.50;102492.00;;;;5008813;28;20637;-80
2022/09/21 03:45:17;;;;;;;1.98;0.75;;;;;14.50;102483.00;;;;5007725;28;20193;-80
2022/09/21 03:47:45;;;;;;;1.58;0.63;;;;;14.50;102495.00;;;;5008641;28;20201;-80
2022/09/21 03:50:12;;;;;;;4.45;1.42;;;;;14.50;102490.00;;;;5006565;28;20207;-79
2022/09/21 03:52:41;;;;;;;1.85;0.77;;;;;14.50;102488.00;;;;5006872;28;20204;-80
2022/09/21 03:55:09;;;;;;;2.50;0.75;;;;;14.50;102491.00;;;;5007069;28;20216;-79
2022/09/21 03:57:37;;;;;;;0.98;0.75;;;;;14.50;102487.00;;;;5006572;28;20239;-79
2022/09/21 04:00:08;;;;;;;0.77;0.60;;;;;14.50;102488.00;;;;5008047;28;20263;-80
2022/09/21 04:02:35;;;;;;;1.77;0.80;;;;;14.50;102482.00;;;;5007658;28;20217;-80
2022/09/21 04:05:03;;;;;;;4.32;0.90;;;;;14.50;102489.00;;;;5007039;28;20701;-79
2022/09/21 04:07:33;;;;;;;1.38;0.75;;;;;14.50;102481.00;;;;5009049;28;20208;-80
2022/09/21 04:10:02;;;;;;;1.80;0.60;;;;;14.40;102484.00;;;;5007482;28;20201;-81
2022/09/21 04:12:30;;;;;;;1.60;0.77;;;;;14.50;102484.00;;;;5007896;28;20208;-81
2022/09/21 04:14:57;;;;;;;2.33;0.65;;;;;14.50;102484.00;;;;5007235;28;20212;-80
2022/09/21 04:17:25;;;;;;;1.98;0.82;;;;;14.50;102481.00;;;;4999357;28;20575;-81
2022/09/21 04:19:52;;;;;;;2.67;0.70;;;;;14.40;102477.00;;;;5007815;28;20590;-81
2022/09/21 04:22:19;;;;;;;1.70;1.00;;;;;14.50;102478.00;;;;5006716;28;20675;-80
2022/09/21 04:24:47;;;;;;;1.88;0.63;;;;;14.50;102480.00;;;;5008296;28;20197;-81
2022/09/21 04:27:16;;;;;;;1.85;0.82;;;;;14.50;102486.00;;;;5005661;28;20211;-81
2022/09/21 04:29:43;;;;;;;1.15;0.75;;;;;14.50;102475.00;;;;5005795;28;20655;-81
2022/09/21 04:32:11;;;;;;;1.85;0.82;;;;;14.50;102484.00;;;;5007207;28;20196;-81
2022/09/21 04:34:39;;;;;;;1.92;1.13;;;;;14.50;102480.00;;;;5008374;28;20208;-80
2022/09/21 04:37:07;;;;;;;2.30;0.80;;;;;14.50;102480.00;;;;5006232;28;20224;-80
2022/09/21 04:39:36;;;;;;;2.30;1.00;;;;;14.50;102479.00;;;;5008787;28;20279;-78
2022/09/21 04:42:17;;;;;;;0.52;0.52;;;;;14.40;102482.00;;;;5011346;28;20226;-78
2022/09/21 04:44:46;;;;;;;2.83;0.77;;;;;14.50;102477.00;;;;5011764;28;20185;-78
2022/09/21 04:47:30;;;;;;;2.55;0.90;;;;;14.40;102480.00;;;;5009787;28;20201;-78
2022/09/21 04:50:31;;;;;;;2.42;0.88;;;;;14.40;102482.00;;;;5011776;28;20212;-79
2022/09/21 04:53:06;;;;;;;3.53;0.90;;;;;14.40;102484.00;;;;5009621;28;20682;-79
2022/09/21 04:55:42;;;;;;;0.70;0.50;;;;;14.40;102484.00;;;;5010920;28;20200;-80
2022/09/21 04:58:10;;;;;;;1.60;0.68;;;;;14.50;102487.00;;;;5010090;28;20236;-79
2022/09/21 05:00:59;;;;;;;1.05;0.70;;;;;14.40;102488.00;;;;5008854;28;20197;-79
2022/09/21 05:03:27;;;;;;;1.33;0.60;;;;;14.50;102487.00;;;;5010194;28;20658;-79
2022/09/21 05:05:57;;;;;;;1.92;0.98;;;;;14.50;102492.00;;;;5010370;28;20201;-80
2022/09/21 05:11:20;;;;;;;3.78;1.20;;;;;14.40;102502.00;;;;5003815;28;20481;-79
2022/09/21 05:13:51;;;;;;;3.53;0.98;;;;;14.50;102491.00;;;;5010853;28;20203;-79
2022/09/21 05:16:20;;;;;;;2.15;0.70;;;;;14.60;102506.00;;;;5001566;28;20193;-79
2022/09/21 05:18:53;;;;;;;1.20;0.60;;;;;14.50;102501.00;;;;5013985;28;20232;-80
2022/09/21 05:21:22;;;;;;;2.20;0.88;;;;;14.60;102497.00;;;;5013898;28;20209;-79
2022/09/21 05:23:49;;;;;;;0.98;0.68;;;;;14.60;102502.00;;;;5012829;28;20196;-79
2022/09/21 05:26:16;;;;;;;1.20;0.52;;;;;14.60;102504.00;;;;5010161;28;20209;-78
2022/09/21 05:28:44;;;;;;;2.72;0.77;;;;;14.60;102504.00;;;;5010616;28;20201;-78
2022/09/21 05:31:46;;;;;;;1.85;0.90;;;;;14.40;102502.00;;;;5010886;28;20216;-79
2022/09/21 05:34:25;;;;;;;1.55;0.60;;;;;14.50;102505.00;;;;5007237;28;20204;-79
2022/09/21 05:36:58;;;;;;;1.70;0.80;;;;;14.50;102503.00;;;;5004245;28;20208;-79
2022/09/21 05:39:26;;;;;;;4.75;0.75;;;;;14.50;102499.00;;;;5011662;28;20193;-80
2022/09/21 05:41:54;;;;;;;1.45;0.70;;;;;14.50;102505.00;;;;5009790;28;20208;-79
2022/09/21 05:44:22;;;;;;;1.70;0.70;;;;;14.50;102499.00;;;;5010040;28;20259;-79
2022/09/21 05:46:58;;;;;;;1.92;0.77;;;;;14.40;102503.00;;;;5006443;28;20197;-79
2022/09/21 05:49:34;;;;;;;4.18;0.90;;;;;14.40;102506.00;;;;5008635;28;20196;-79
2022/09/21 05:52:11;;;;;;;2.53;0.70;;;;;14.40;102509.00;;;;5009772;28;20200;-80
2022/09/21 05:54:52;;;;;;;2.47;0.70;;;;;14.40;102514.00;;;;5009601;28;20200;-80
2022/09/21 05:57:26;;;;;;;1.55;1.00;;;;;14.40;102510.00;;;;5006706;28;20220;-79
2022/09/21 06:00:02;;;;;;;4.05;0.73;;;;;14.40;102515.00;;;;5007457;28;20556;-79
2022/09/21 06:02:48;;;;;;;4.50;1.13;;;;;14.40;102521.00;;;;5005781;28;20578;-78
2022/09/21 06:05:17;;;;;;;2.08;0.70;;;;;14.50;102521.00;;;;5008653;28;20193;-82
2022/09/21 06:07:44;;;;;;;2.20;1.02;;;;;14.50;102525.00;;;;5005791;28;20206;-78
2022/09/21 06:10:13;;;;;;;1.13;0.80;;;;;14.50;102524.00;;;;5002544;28;20212;-78
2022/09/21 06:12:41;;;;;;;1.45;0.90;;;;;14.50;102532.00;;;;5009196;28;20208;-78
2022/09/21 06:15:12;;;;;;;2.63;1.17;;;;;14.50;102531.00;;;;5010079;28;20203;-77
2022/09/21 06:17:41;;;;;;;2.10;1.35;;;;;14.60;102536.00;;;;5010563;28;20320;-78
2022/09/21 06:20:09;;;;;;;5.43;1.25;;;;;14.60;102534.00;;;;5009554;28;20209;-78
2022/09/21 06:22:37;;;;;;;7.35;1.58;;;;;14.70;102540.00;;;;5009404;28;20553;-77
2022/09/21 06:25:04;;;;;;;1.42;0.95;;;;;14.70;102543.00;;;;5008640;28;20204;-78
2022/09/21 06:27:32;;;;;;;3.78;1.20;;;;;14.70;102541.00;;;;5002102;28;20686;-78
2022/09/21 06:29:59;;;;;;;1.45;1.10;;;;;14.80;102539.00;;;;5009415;28;20205;-77
2022/09/21 06:32:26;;;;;;;1.73;0.77;;;;;14.80;102543.00;;;;5007728;28;20204;-78
2022/09/21 06:34:55;;;;;;;1.83;0.73;;;;;14.90;102553.00;;;;5009006;28;20560;-77
2022/09/21 06:37:22;;;;;;;4.95;0.88;;;;;14.90;102556.00;;;;5008159;28;20605;-77
2022/09/21 06:39:50;;;;;;;1.92;1.25;;;;;15.00;102545.00;;;;5013755;28;20197;-78
2022/09/21 06:42:17;;;;;;;1.23;0.75;;;;;15.00;102546.00;;;;5021856;28;20189;-78
2022/09/21 06:44:44;;;;;;;3.50;0.70;;;;;15.10;102545.00;;;;5009786;28;20734;-77
2022/09/21 06:47:11;;;;;;;5.57;1.30;;;;;15.10;102552.00;;;;5008434;28;20562;-78
2022/09/21 06:49:39;;;;;;;3.63;1.33;;;;;15.20;102550.00;;;;5015554;28;20200;-77
2022/09/21 06:52:08;;;;;;;1.67;0.90;;;;;15.20;102554.00;;;;5009077;28;20220;-77
2022/09/21 06:54:35;;;;;;;4.20;1.00;;;;;15.30;102550.00;;;;5001078;28;20193;-78
2022/09/21 06:57:03;;;;;;;4.38;0.80;;;;;15.40;102553.00;;;;5004932;28;20229;-78
2022/09/21 06:59:30;;;;;;;7.13;1.90;;;;;15.50;102554.00;;;;5003127;28;20221;-78
2022/09/21 07:01:58;;;;;;;2.38;0.50;;;;;15.50;102553.00;;;;5007454;28;20224;-77
2022/09/21 07:04:27;;;;;;;3.20;0.80;;;;;15.60;102551.00;;;;5012106;28;20207;-78
2022/09/21 07:06:54;;;;;;;3.17;0.77;;;;;15.70;102553.00;;;;5010549;28;20675;-78
2022/09/21 07:09:23;;;;;;;1.52;0.80;;;;;15.80;102554.00;;;;5010363;28;20208;-78
2022/09/21 07:11:50;;;;;;;3.70;0.70;;;;;15.80;102553.00;;;;5009442;28;20212;-78
2022/09/21 07:14:18;;;;;;;3.63;0.75;;;;;15.90;102565.00;;;;4996997;28;20189;-78
2022/09/21 07:16:45;;;;;;;2.38;0.93;;;;;16.00;102559.00;;;;5001395;28;20232;-78
2022/09/21 07:19:12;;;;;;;4.47;1.13;;;;;16.10;102554.00;;;;4991390;28;20228;-77
2022/09/21 07:21:40;;;;;;;4.43;0.70;;;;;16.20;102560.00;;;;5006055;28;20194;-78
2022/09/21 07:24:07;;;;;;;2.40;0.98;;;;;16.30;102564.00;;;;5007444;28;20671;-78
2022/09/21 07:26:36;;;;;;;1.50;0.77;;;;;16.30;102555.00;;;;5008506;28;20209;-79
2022/09/21 07:29:03;;;;;;;3.80;1.77;;;;;16.40;102554.00;;;;5007447;28;20205;-79
2022/09/21 07:31:30;;;;;;;3.25;1.23;;;;;16.60;102555.00;;;;5007260;28;20578;-79
2022/09/21 07:33:58;;;;;;;1.63;0.80;;;;;16.60;102560.00;;;;5003988;28;20204;-78
2022/09/21 07:36:26;;;;;;;3.03;1.13;;;;;16.70;102566.00;;;;5007525;28;20193;-78
2022/09/21 07:38:53;;;;;;;6.55;1.38;;;;;16.80;102560.00;;;;5007365;28;20224;-77
2022/09/21 07:41:21;;;;;;;1.75;1.13;;;;;16.90;102560.00;;;;5006911;28;20197;-77
2022/09/21 07:43:50;;;;;;;1.98;1.10;;;;;17.00;102558.00;;;;5005658;28;20205;-77
2022/09/21 07:46:19;;;;;;;3.25;1.08;;;;;17.10;102565.00;;;;5007241;28;20209;-77
2022/09/21 07:48:47;;;;;;;2.35;1.08;;;;;17.20;102555.00;;;;5007946;28;20271;-77
2022/09/21 07:51:16;;;;;;;3.35;1.00;;;;;17.30;102563.00;;;;4997710;28;20209;-77
2022/09/21 07:53:44;;;;;;;3.25;1.13;;;;;17.40;102559.00;;;;4999565;28;20201;-78
2022/09/21 07:56:13;;;;;;;1.63;1.00;;;;;17.50;102555.00;;;;5007148;28;20662;-78
2022/09/21 08:01:28;;;;;;;3.92;1.27;;;;;17.80;102557.00;;;;5005848;28;20215;-77
2022/09/21 08:03:57;;;;;;;2.03;1.05;;;;;17.90;102556.00;;;;5007067;28;21129;-76
2022/09/21 08:06:26;;;;;;;1.80;0.60;;;;;18.00;102555.00;;;;5002714;28;20572;-77
2022/09/21 08:08:54;;;;;;;1.42;0.60;;;;;18.10;102541.00;;;;5005967;28;20255;-77
2022/09/21 08:11:22;;;;;;;2.20;0.80;;;;;18.20;102555.00;;;;5006514;28;20204;-77
2022/09/21 08:13:52;;;;;;;3.10;0.75;;;;;18.40;102542.00;;;;5005759;28;20205;-77
2022/09/21 08:16:19;;;;;;;2.25;0.63;;;;;18.50;102551.00;;;;5005938;28;20205;-78
2022/09/21 08:18:49;;;;;;;2.08;0.80;;;;;18.60;102552.00;;;;5005890;28;20225;-78
2022/09/21 08:21:16;;;;;;;2.15;0.88;;;;;18.70;102555.00;;;;5004047;28;20211;-79
2022/09/21 08:23:44;;;;;;;1.67;0.75;;;;;18.90;102560.00;;;;5003486;28;20212;-79
2022/09/21 08:26:15;;;;;;;5.60;1.20;;;;;19.00;102562.00;;;;5004610;28;20605;-79
2022/09/21 08:28:42;;;;;;;2.63;0.77;;;;;19.10;102564.00;;;;5002111;28;20193;-78
2022/09/21 08:31:10;;;;;;;1.23;0.50;;;;;19.20;102567.00;;;;5006682;28;20197;-79
2022/09/21 08:33:37;;;;;;;3.22;0.90;;;;;19.30;102575.00;;;;4997390;28;20215;-79
2022/09/21 08:36:07;;;;;;;2.70;0.77;;;;;19.40;102572.00;;;;5000837;28;20563;-78
2022/09/21 08:38:36;;;;;;;2.28;0.93;;;;;19.50;102571.00;;;;5000130;28;20228;-77
2022/09/21 08:41:13;;;;;;;2.40;0.50;;;;;19.60;102574.00;;;;5002229;28;20797;-78
2022/09/21 08:43:42;;;;;;;1.17;0.60;;;;;19.80;102577.00;;;;5002999;28;20236;-78
2022/09/21 08:46:14;;;;;;;1.90;0.73;;;;;19.90;102583.00;;;;5007077;28;20204;-79
2022/09/21 08:48:45;;;;;;;1.23;0.63;;;;;20.00;102578.00;;;;5010383;28;20203;-78
2022/09/21 08:51:21;;;;;;;1.85;0.57;;;;;20.10;102578.00;;;;5000225;28;20193;-78
2022/09/21 08:53:50;;;;;;;2.65;0.55;;;;;20.30;102581.00;;;;5007748;28;20193;-79
2022/09/21 08:56:20;;;;;;;1.67;0.60;;;;;20.40;102582.00;;;;5005558;28;20204;-79
2022/09/21 08:58:47;;;;;;;8.75;1.05;;;;;20.50;102580.00;;;;5002986;28;20710;-79
2022/09/21 09:01:39;;;;;;;1.50;0.60;;;;;20.50;102582.00;;;;5005100;28;20220;-79
2022/09/21 09:04:35;;;;;;;1.70;0.40;;;;;20.60;102585.00;;;;5006667;28;20691;-78
2022/09/21 09:07:16;;;;;;;5.53;0.88;;;;;20.80;102587.00;;;;5018852;28;20204;-79
2022/09/21 09:09:57;;;;;;;2.45;0.60;;;;;20.90;102589.00;;;;5007384;28;20205;-79
2022/09/21 09:12:39;;;;;;;2.55;0.32;;;;;21.00;102588.00;;;;4995999;28;20189;-79
2022/09/21 09:15:34;;;;;;;3.00;0.77;;;;;21.10;102583.00;;;;5002972;28;20201;-79
2022/09/21 09:18:09;;;;;;;1.85;0.50;;;;;21.30;102594.00;;;;5009235;28;20915;-78
2022/09/21 09:20:39;;;;;;;1.85;0.60;;;;;21.40;102591.00;;;;5013925;28;20666;-79
2022/09/21 09:23:14;;;;;;;1.40;0.40;;;;;21.50;102595.00;;;;5010443;28;20208;-79
2022/09/21 09:25:46;;;;;;;4.32;0.60;;;;;21.60;102596.00;;;;5007169;28;20574;-79
2022/09/21 09:28:24;;;;;;;1.13;0.43;;;;;21.70;102597.00;;;;5008050;28;20212;-79
2022/09/21 09:30:59;;;;;;;1.10;0.57;;;;;21.80;102592.00;;;;5008246;28;20675;-78
2022/09/21 09:33:30;;;;;;;1.05;0.43;;;;;21.90;102600.00;;;;5010609;28;21046;-79
2022/09/21 09:36:02;;;;;;;3.50;0.80;;;;;22.00;102596.00;;;;5010640;28;20201;-78
2022/09/21 09:38:36;;;;;;;3.35;0.80;;;;;22.10;102597.00;;;;5010470;28;20307;-78
2022/09/21 09:41:23;;;;;;;1.85;0.52;;;;;22.20;102589.00;;;;5020226;28;20555;-78
2022/09/21 09:44:07;;;;;;;2.97;0.70;;;;;22.30;102594.00;;;;5005417;28;20576;-79
2022/09/21 09:46:44;;;;;;;2.78;0.40;;;;;22.40;102588.00;;;;4999512;28;20196;-79
2022/09/21 09:49:24;;;;;;;1.63;0.50;;;;;22.50;102595.00;;;;5005896;28;20623;-78
2022/09/21 09:51:52;;;;;;;3.08;0.57;;;;;22.70;102594.00;;;;5010746;28;20211;-79
2022/09/21 09:54:24;;;;;;;0.73;0.40;;;;;22.70;102588.00;;;;5009314;28;20216;-78
2022/09/21 09:56:53;;;;;;;2.50;0.80;;;;;22.90;102594.00;;;;5008802;28;20197;-79
2022/09/21 09:59:29;;;;;;;4.28;0.60;;;;;22.90;102593.00;;;;5013078;28;20224;-79
2022/09/21 10:02:02;;;;;;;4.05;0.47;;;;;23.00;102590.00;;;;5010454;28;20216;-77
2022/09/21 10:04:29;;;;;;;2.45;0.40;;;;;23.10;102592.00;;;;5010146;28;20286;-77
2022/09/21 10:06:57;;;;;;;1.13;0.45;;;;;23.20;102587.00;;;;5010920;28;20201;-78
2022/09/21 10:09:27;;;;;;;1.92;0.52;;;;;23.20;102592.00;;;;5007247;28;20209;-80
2022/09/21 10:12:00;;;;;;;1.58;0.50;;;;;23.30;102594.00;;;;5005453;28;20200;-78
2022/09/21 10:14:31;;;;;;;1.55;0.30;;;;;23.40;102593.00;;;;5009764;28;20193;-79
2022/09/21 10:17:03;;;;;;;3.10;0.70;;;;;23.50;102582.00;;;;5002618;28;20216;-79
2022/09/21 10:19:31;;;;;;;3.65;0.60;;;;;23.50;102583.00;;;;5007118;28;20221;-77
2022/09/21 10:22:01;;;;;;;1.27;0.32;;;;;23.60;102581.00;;;;5019706;28;20205;-78
2022/09/21 10:24:33;;;;;;;1.20;0.60;;;;;23.70;102584.00;;;;5006250;28;20219;-78
2022/09/21 10:27:09;;;;;;;1.77;0.40;;;;;23.70;102584.00;;;;5010847;28;20197;-78
2022/09/21 10:29:41;;;;;;;1.65;0.45;;;;;23.80;102582.00;;;;5001696;28;20228;-76
2022/09/21 10:32:25;;;;;;;4.15;0.70;;;;;23.80;102585.00;;;;5005751;28;20208;-77
2022/09/21 10:35:14;;;;;;;4.55;0.73;;;;;23.80;102585.00;;;;5006845;28;20654;-77
2022/09/21 10:37:44;;;;;;;1.25;0.40;;;;;24.00;102582.00;;;;5006402;28;20290;-77
2022/09/21 10:40:29;;;;;;;2.60;0.35;;;;;23.90;102576.00;;;;5011375;28;20224;-76
2022/09/21 10:43:00;;;;;;;2.53;0.52;;;;;24.00;102569.00;;;;5008365;28;20694;-76
2022/09/21 10:45:30;;;;;;;2.13;0.43;;;;;24.10;102575.00;;;;5014136;28;20203;-77
2022/09/21 10:48:07;;;;;;;1.48;0.75;;;;;24.00;102578.00;;;;5007589;28;20205;-76
2022/09/21 10:50:37;;;;;;;1.33;0.57;;;;;24.00;102577.00;;;;5004004;28;20204;-77
2022/09/21 10:53:14;;;;;;;0.60;0.20;;;;;23.90;102580.00;;;;5007475;28;20288;-77
2022/09/21 10:55:53;;;;;;;1.05;0.40;;;;;23.80;102578.00;;;;5004968;28;20870;-77
2022/09/21 10:58:20;;;;;;;1.77;0.60;;;;;23.80;102577.00;;;;5002205;28;20323;-78
2022/09/21 11:00:50;;;;;;;0.75;0.22;;;;;23.70;102570.00;;;;5006131;28;20644;-77
2022/09/21 11:03:41;;;;;;;8.75;1.27;;;;;23.50;102572.00;;;;5006152;28;20200;-78
2022/09/21 11:06:14;;;;;;;1.55;0.30;;;;;23.50;102576.00;;;;5004380;28;20569;-78
2022/09/21 11:08:49;;;;;;;0.95;0.38;;;;;23.40;102576.00;;;;5009761;28;20197;-78
2022/09/21 11:11:38;;;;;;;2.78;0.30;;;;;23.30;102578.00;;;;5005644;28;20201;-78
2022/09/21 11:14:16;;;;;;;1.55;0.30;;;;;23.20;102576.00;;;;5013890;28;20225;-78
2022/09/21 11:16:51;;;;;;;1.08;0.28;;;;;23.20;102573.00;;;;5008645;28;20198;-78
2022/09/21 11:19:25;;;;;;;0.70;0.43;;;;;23.10;102561.00;;;;5005907;28;20228;-77
2022/09/21 11:21:58;;;;;;;1.50;0.40;;;;;23.00;102563.00;;;;5013322;28;20947;-78
2022/09/21 11:24:41;;;;;;;0.80;0.40;;;;;22.90;102563.00;;;;5005205;28;20205;-78
2022/09/21 11:27:13;;;;;;;1.42;0.32;;;;;22.90;102562.00;;;;5010870;28;20634;-78
2022/09/21 11:29:50;;;;;;;0.98;0.60;;;;;22.80;102558.00;;;;5012694;28;20197;-78
2022/09/21 11:32:35;;;;;;;3.15;0.77;;;;;22.80;102558.00;;;;4998284;28;20227;-77
2022/09/21 11:35:41;;;;;;;1.38;0.50;;;;;22.70;102557.00;;;;5002840;28;20205;-79
2022/09/21 11:38:19;;;;;;;1.73;0.30;;;;;22.70;102554.00;;;;4986889;28;20211;-80
2022/09/21 11:41:08;;;;;;;2.40;0.73;;;;;22.60;102552.00;;;;5007368;28;20224;-79
2022/09/21 11:44:03;;;;;;;1.15;0.20;;;;;22.50;102561.00;;;;5004851;28;20287;-79
2022/09/21 11:46:38;;;;;;;1.38;0.50;;;;;22.60;102554.00;;;;4992734;28;20208;-79
2022/09/21 11:49:28;;;;;;;0.43;0.40;;;;;22.50;102561.00;;;;5005285;28;20196;-79
2022/09/21 11:52:19;;;;;;;1.38;0.30;;;;;22.50;102557.00;;;;5007195;28;20220;-80
2022/09/21 11:55:15;;;;;;;0.43;0.30;;;;;22.50;102552.00;;;;4995217;28;20667;-80
2022/09/21 11:57:48;;;;;;;0.38;0.20;;;;;22.50;102556.00;;;;5010677;28;20225;-78
2022/09/21 12:00:19;;;;;;;1.38;0.35;;;;;22.50;102546.00;;;;5006014;28;20703;-79
2022/09/21 12:03:17;;;;;;;0.93;0.20;;;;;22.50;102546.00;;;;5001742;28;20216;-77
2022/09/21 12:05:50;;;;;;;0.77;0.30;;;;;22.70;102532.00;;;;5001981;28;20628;-77
2022/09/21 12:08:46;;;;;;;2.13;0.50;;;;;22.70;102533.00;;;;4997745;28;20205;-76
2022/09/21 12:11:24;;;;;;;1.17;0.57;;;;;22.80;102529.00;;;;5006119;28;20216;-78
2022/09/21 12:14:01;;;;;;;2.05;0.30;;;;;22.90;102532.00;;;;5005881;28;21423;-76
2022/09/21 12:16:41;;;;;;;0.30;0.17;;;;;23.00;102533.00;;;;5003130;28;20197;-76
2022/09/21 12:19:19;;;;;;;0.80;0.43;;;;;23.20;102521.00;;;;5006796;28;20204;-77
2022/09/21 12:21:49;;;;;;;1.35;0.32;;;;;23.30;102520.00;;;;5008684;28;20207;-77
2022/09/21 12:24:21;;;;;;;1.80;0.40;;;;;23.40;102526.00;;;;5006521;28;20686;-77
2022/09/21 12:26:52;;;;;;;0.70;0.10;;;;;23.50;102525.00;;;;5007913;28;20287;-77
2022/09/21 12:29:25;;;;;;;3.63;0.30;;;;;23.50;102521.00;;;;5008003;28;20204;-77
2022/09/21 12:32:01;;;;;;;0.63;0.28;;;;;23.60;102515.00;;;;5001636;28;20201;-76
2022/09/21 12:34:35;;;;;;;1.23;0.20;;;;;23.70;102512.00;;;;5008518;28;20200;-76
2022/09/21 12:37:09;;;;;;;0.43;0.10;;;;;23.80;102512.00;;;;5005418;28;20675;-77
2022/09/21 12:39:43;;;;;;;0.20;0.10;;;;;23.90;102512.00;;;;5006037;28;20224;-76